Time;durP1;ratioP1;P1;durP2;ratioP2;P2;SDS_P1;SDS_P2;PMS_P1;PMS_P2;Temp;Humidity;BMP_temperature;BMP_pressure;BME280_temperature;BME280_humidity;BME280_pressure;Samples;Min_cycle;Max_cycle;Signal;HPM_P1;HPM_P2
2023/10/31 00:00:31;;;;;;;25.80;15.97;;;11.90;99.90;;;;;;4976082;28;20636;-72
2023/10/31 00:02:56;;;;;;;20.20;14.47;;;11.80;99.90;;;;;;4975767;28;20171;-72
2023/10/31 00:05:22;;;;;;;18.40;13.83;;;11.90;99.90;;;;;;4976016;28;20666;-72
2023/10/31 00:07:47;;;;;;;20.90;13.93;;;11.80;99.90;;;;;;4975799;28;20181;-72
2023/10/31 00:10:13;;;;;;;20.00;13.40;;;11.80;99.90;;;;;;4975433;28;20223;-72
2023/10/31 00:12:39;;;;;;;17.07;12.97;;;11.70;99.90;;;;;;4975727;28;20187;-72
2023/10/31 00:15:05;;;;;;;19.87;13.27;;;11.70;99.90;;;;;;4975423;28;20747;-71
2023/10/31 00:17:31;;;;;;;17.50;12.50;;;11.80;99.90;;;;;;4975726;28;20251;-72
2023/10/31 00:19:56;;;;;;;15.73;10.80;;;11.90;99.90;;;;;;4975547;28;20183;-72
2023/10/31 00:22:22;;;;;;;15.30;11.40;;;11.90;99.90;;;;;;4974164;28;20187;-71
2023/10/31 00:24:48;;;;;;;15.87;10.33;;;11.80;99.90;;;;;;4974880;28;20223;-72
2023/10/31 00:27:14;;;;;;;13.17;10.60;;;11.90;99.90;;;;;;4974168;28;20184;-72
2023/10/31 00:29:40;;;;;;;13.30;10.20;;;11.90;99.90;;;;;;4975411;28;20562;-72
2023/10/31 00:32:06;;;;;;;15.10;10.67;;;11.90;99.90;;;;;;4975427;28;20189;-71
2023/10/31 00:34:31;;;;;;;13.07;9.90;;;11.80;99.90;;;;;;4975166;28;20203;-71
2023/10/31 00:36:57;;;;;;;14.80;9.93;;;11.80;99.90;;;;;;4975285;28;20234;-71
2023/10/31 00:39:23;;;;;;;11.07;9.37;;;11.80;99.90;;;;;;4975168;28;20183;-72
2023/10/31 00:41:48;;;;;;;15.70;9.37;;;11.80;99.90;;;;;;4974140;28;20246;-71
2023/10/31 00:44:14;;;;;;;9.70;8.50;;;11.70;99.90;;;;;;4975196;28;20651;-72
2023/10/31 00:46:40;;;;;;;10.33;8.60;;;11.70;99.90;;;;;;4975186;28;20203;-72
2023/10/31 00:49:05;;;;;;;10.47;8.70;;;11.70;99.90;;;;;;4974228;28;20179;-72
2023/10/31 00:51:31;;;;;;;11.83;8.20;;;11.80;99.90;;;;;;4973696;28;20176;-72
2023/10/31 00:53:57;;;;;;;10.00;8.50;;;11.70;99.90;;;;;;4974528;28;20207;-71
2023/10/31 00:56:22;;;;;;;10.67;8.20;;;11.70;99.90;;;;;;4974959;28;20207;-71
2023/10/31 00:58:48;;;;;;;9.40;8.10;;;11.70;99.90;;;;;;4974923;28;20175;-72
2023/10/31 01:01:14;;;;;;;10.80;8.03;;;11.70;99.90;;;;;;4974622;28;20176;-72
2023/10/31 01:03:41;;;;;;;11.93;8.33;;;11.70;99.90;;;;;;4974965;28;20176;-71
2023/10/31 01:06:07;;;;;;;9.07;7.43;;;11.80;99.90;;;;;;4973405;28;20525;-72
2023/10/31 01:08:33;;;;;;;9.83;7.47;;;11.70;99.90;;;;;;4974451;28;20178;-72
2023/10/31 01:10:58;;;;;;;10.37;8.20;;;11.80;99.90;;;;;;4973396;28;20180;-72
2023/10/31 01:13:24;;;;;;;8.50;7.57;;;11.80;99.90;;;;;;4974733;28;20171;-72
2023/10/31 01:15:49;;;;;;;9.10;8.17;;;11.80;99.90;;;;;;4973226;28;20227;-72
2023/10/31 01:18:15;;;;;;;9.97;7.87;;;11.80;99.90;;;;;;4974493;28;20176;-72
2023/10/31 01:20:40;;;;;;;9.03;8.13;;;11.70;99.90;;;;;;4974422;28;20187;-71
2023/10/31 01:23:06;;;;;;;11.70;8.57;;;11.70;99.90;;;;;;4974620;28;20275;-72
2023/10/31 01:25:31;;;;;;;8.40;7.60;;;11.70;99.90;;;;;;4974513;28;20703;-72
2023/10/31 01:27:57;;;;;;;8.63;7.77;;;11.70;99.90;;;;;;4973321;28;20215;-71
2023/10/31 01:30:23;;;;;;;10.63;8.13;;;11.70;99.90;;;;;;4973197;28;20192;-71
2023/10/31 01:32:48;;;;;;;8.23;7.30;;;11.70;99.90;;;;;;4974346;28;20226;-72
2023/10/31 01:35:14;;;;;;;8.13;7.33;;;11.60;99.90;;;;;;4974304;28;20219;-72
2023/10/31 01:37:39;;;;;;;8.70;7.57;;;11.60;99.90;;;;;;4974036;28;20212;-72
2023/10/31 01:40:07;;;;;;;10.13;7.93;;;11.50;99.90;;;;;;4974338;28;20262;-72
2023/10/31 01:42:33;;;;;;;8.90;8.10;;;11.40;99.90;;;;;;4974299;28;20539;-72
2023/10/31 01:44:58;;;;;;;9.03;8.23;;;11.40;99.90;;;;;;4974353;28;20255;-72
2023/10/31 01:47:24;;;;;;;8.67;7.87;;;11.40;99.90;;;;;;4974349;28;20182;-72
2023/10/31 01:49:51;;;;;;;10.50;8.00;;;11.50;99.90;;;;;;4973991;28;20652;-71
2023/10/31 01:52:17;;;;;;;8.63;7.80;;;11.50;99.90;;;;;;4974136;28;20239;-73
2023/10/31 01:54:44;;;;;;;9.47;7.90;;;11.50;99.90;;;;;;4972773;28;20223;-71
2023/10/31 01:57:11;;;;;;;10.03;8.23;;;11.40;99.90;;;;;;4974314;28;20695;-72
2023/10/31 01:59:37;;;;;;;8.80;8.00;;;11.40;99.90;;;;;;4975884;28;20227;-71
2023/10/31 02:02:03;;;;;;;9.17;8.30;;;11.30;99.90;;;;;;4978236;28;20168;-71
2023/10/31 02:04:29;;;;;;;12.73;8.40;;;11.40;99.90;;;;;;4977803;28;20713;-71
2023/10/31 02:06:55;;;;;;;9.87;8.37;;;11.40;99.90;;;;;;4977701;28;20172;-71
2023/10/31 02:09:24;;;;;;;10.50;7.97;;;11.40;99.90;;;;;;4977991;28;20323;-71
2023/10/31 02:11:50;;;;;;;11.13;8.40;;;11.50;99.90;;;;;;4978099;28;20195;-71
2023/10/31 02:14:16;;;;;;;9.80;8.17;;;11.50;99.90;;;;;;4977887;28;20228;-71
2023/10/31 02:16:41;;;;;;;10.13;8.20;;;11.50;99.90;;;;;;4977710;28;20178;-71
2023/10/31 02:19:07;;;;;;;10.37;7.73;;;11.50;99.90;;;;;;4977815;28;20172;-72
2023/10/31 02:21:33;;;;;;;8.90;7.97;;;11.50;99.90;;;;;;4977466;28;20168;-71
2023/10/31 02:24:00;;;;;;;9.37;8.47;;;11.60;99.90;;;;;;4977465;28;20168;-71
2023/10/31 02:26:33;;;;;;;10.40;8.67;;;11.50;99.90;;;;;;4977737;28;20254;-71
2023/10/31 02:28:59;;;;;;;10.03;9.03;;;11.50;99.90;;;;;;4977518;28;20172;-71
2023/10/31 02:31:25;;;;;;;11.07;8.83;;;11.40;99.90;;;;;;4977387;28;20598;-71
2023/10/31 02:33:50;;;;;;;10.77;9.20;;;11.40;99.90;;;;;;4977466;28;20196;-72
2023/10/31 02:36:17;;;;;;;10.13;8.90;;;11.40;99.90;;;;;;4977372;28;20628;-72
2023/10/31 02:38:42;;;;;;;8.63;7.80;;;11.40;99.90;;;;;;4977518;28;20168;-72
2023/10/31 02:41:08;;;;;;;8.47;7.77;;;11.40;99.90;;;;;;4977439;28;20179;-72
2023/10/31 02:43:34;;;;;;;9.87;8.87;;;11.40;99.90;;;;;;4977445;28;20526;-72
2023/10/31 02:45:59;;;;;;;9.30;8.40;;;11.40;99.90;;;;;;4977371;28;20183;-72
2023/10/31 02:48:26;;;;;;;10.93;8.60;;;11.30;99.90;;;;;;4977248;28;20240;-72
2023/10/31 02:50:52;;;;;;;8.73;7.90;;;11.30;99.90;;;;;;4975503;28;20551;-72
2023/10/31 02:53:20;;;;;;;9.37;8.37;;;11.20;99.90;;;;;;4976208;28;20251;-72
2023/10/31 02:55:46;;;;;;;9.33;8.33;;;11.20;99.90;;;;;;4977097;28;20267;-72
2023/10/31 02:58:12;;;;;;;12.53;9.33;;;11.10;99.90;;;;;;4977346;28;20180;-72
2023/10/31 03:00:38;;;;;;;9.57;8.67;;;11.20;99.90;;;;;;4977004;28;20651;-72
2023/10/31 03:03:04;;;;;;;10.30;8.90;;;11.20;99.90;;;;;;4977042;28;20191;-72
2023/10/31 03:05:30;;;;;;;9.73;8.83;;;11.20;99.90;;;;;;4975399;28;20180;-72
2023/10/31 03:07:56;;;;;;;10.23;9.20;;;11.20;99.90;;;;;;4977032;28;20170;-72
2023/10/31 03:10:22;;;;;;;8.77;7.97;;;11.30;99.90;;;;;;4976320;28;20172;-72
2023/10/31 03:12:48;;;;;;;9.23;8.33;;;11.30;99.90;;;;;;4975409;28;20262;-71
2023/10/31 03:15:13;;;;;;;9.33;8.27;;;11.30;99.90;;;;;;4976713;28;20318;-71
2023/10/31 03:17:39;;;;;;;9.23;8.43;;;11.30;99.90;;;;;;4976922;28;20652;-71
2023/10/31 03:20:05;;;;;;;9.73;8.70;;;11.30;99.90;;;;;;4976499;28;20263;-72
2023/10/31 03:22:31;;;;;;;9.77;8.80;;;11.30;99.90;;;;;;4976622;28;20168;-72
2023/10/31 03:24:56;;;;;;;10.00;9.07;;;11.40;99.90;;;;;;4976351;28;20235;-72
2023/10/31 03:27:22;;;;;;;9.77;8.83;;;11.40;99.90;;;;;;4976651;28;20644;-71
2023/10/31 03:29:48;;;;;;;10.90;9.67;;;11.30;99.90;;;;;;4976633;28;20303;-72
2023/10/31 03:32:15;;;;;;;10.87;9.73;;;11.30;99.90;;;;;;4976677;28;20176;-72
2023/10/31 03:34:40;;;;;;;10.43;9.33;;;11.20;99.90;;;;;;4975947;28;20196;-72
2023/10/31 03:37:06;;;;;;;11.70;10.43;;;11.20;99.90;;;;;;4976467;28;20247;-71
2023/10/31 03:39:31;;;;;;;12.43;9.50;;;11.20;99.90;;;;;;4976467;28;20188;-72
2023/10/31 03:41:57;;;;;;;12.00;10.73;;;11.10;99.90;;;;;;4976326;28;20180;-71
2023/10/31 03:44:23;;;;;;;12.20;10.87;;;11.00;99.90;;;;;;4974969;28;20180;-72
2023/10/31 03:46:48;;;;;;;13.73;10.93;;;11.00;99.90;;;;;;4976375;28;20176;-72
2023/10/31 03:49:14;;;;;;;11.93;10.60;;;11.00;99.90;;;;;;4975855;28;20686;-71
2023/10/31 03:51:39;;;;;;;11.70;10.20;;;10.90;99.90;;;;;;4975929;28;20326;-72
2023/10/31 03:54:05;;;;;;;12.83;11.20;;;10.90;99.90;;;;;;4975929;28;20318;-72
2023/10/31 03:56:37;;;;;;;12.13;10.93;;;10.80;99.90;;;;;;4974907;28;20180;-72
2023/10/31 03:59:03;;;;;;;14.00;11.53;;;10.80;99.90;;;;;;4976086;28;20250;-72
2023/10/31 04:01:28;;;;;;;12.43;11.10;;;10.80;99.90;;;;;;4975682;28;20204;-71
2023/10/31 04:03:54;;;;;;;14.13;11.37;;;10.80;99.90;;;;;;4975915;28;20175;-72
2023/10/31 04:06:20;;;;;;;12.27;10.97;;;10.80;99.90;;;;;;4975672;28;20699;-72
2023/10/31 04:08:45;;;;;;;13.00;11.80;;;10.80;99.90;;;;;;4975768;28;20179;-71
2023/10/31 04:11:11;;;;;;;13.97;12.03;;;10.80;99.90;;;;;;4975904;28;20175;-71
2023/10/31 04:13:37;;;;;;;13.63;12.13;;;10.90;99.90;;;;;;4975528;28;20194;-72
2023/10/31 04:16:02;;;;;;;15.43;12.93;;;10.90;99.90;;;;;;4975040;28;20243;-72
2023/10/31 04:18:28;;;;;;;17.37;13.47;;;10.90;99.90;;;;;;4975254;28;20183;-71
2023/10/31 04:20:54;;;;;;;17.07;12.60;;;10.90;99.90;;;;;;4975452;28;20217;-71
2023/10/31 04:23:19;;;;;;;16.70;13.63;;;10.90;99.90;;;;;;4975019;28;20208;-71
2023/10/31 04:25:46;;;;;;;17.03;13.37;;;10.80;99.90;;;;;;4975115;28;20223;-71
2023/10/31 04:28:13;;;;;;;15.07;12.97;;;10.70;99.90;;;;;;4975498;28;20282;-72
2023/10/31 04:30:39;;;;;;;16.07;12.93;;;10.80;99.90;;;;;;4974868;28;20180;-72
2023/10/31 04:33:04;;;;;;;14.03;12.53;;;10.70;99.90;;;;;;4973965;28;20203;-72
2023/10/31 04:35:30;;;;;;;16.57;13.33;;;10.70;99.90;;;;;;4975138;28;20211;-72
2023/10/31 04:37:56;;;;;;;14.63;12.67;;;10.80;99.90;;;;;;4973885;28;20183;-72
2023/10/31 04:40:22;;;;;;;16.67;12.97;;;10.80;99.90;;;;;;4975118;28;20226;-72
2023/10/31 04:42:48;;;;;;;17.37;12.80;;;10.80;99.90;;;;;;4974957;28;20167;-72
2023/10/31 04:45:13;;;;;;;13.90;12.50;;;10.80;99.90;;;;;;4974876;28;20270;-71
2023/10/31 04:47:40;;;;;;;14.20;12.70;;;10.90;99.90;;;;;;4974825;28;20522;-72
2023/10/31 04:50:06;;;;;;;16.00;12.90;;;10.90;99.90;;;;;;4974817;28;20240;-71
2023/10/31 04:52:31;;;;;;;19.40;13.90;;;10.90;99.90;;;;;;4974543;28;20172;-72
2023/10/31 04:54:57;;;;;;;15.47;13.67;;;10.90;99.90;;;;;;4974268;28;20621;-72
2023/10/31 04:57:22;;;;;;;20.23;13.93;;;11.00;99.90;;;;;;4974475;28;20175;-71
2023/10/31 04:59:48;;;;;;;17.17;13.97;;;11.10;99.90;;;;;;4974132;28;20267;-72
2023/10/31 05:02:14;;;;;;;17.70;13.90;;;11.00;99.90;;;;;;4974939;28;20214;-71
2023/10/31 05:04:42;;;;;;;18.43;13.60;;;11.10;99.90;;;;;;4974462;28;20172;-71
2023/10/31 05:07:08;;;;;;;16.90;14.30;;;11.10;99.90;;;;;;4974517;28;20599;-71
2023/10/31 05:09:34;;;;;;;19.33;14.30;;;11.10;99.90;;;;;;4973066;28;20180;-71
2023/10/31 05:12:00;;;;;;;18.47;14.47;;;11.20;99.90;;;;;;4974508;28;20183;-72
2023/10/31 05:14:26;;;;;;;18.20;14.87;;;11.20;99.90;;;;;;4972642;28;20215;-71
2023/10/31 05:16:51;;;;;;;17.37;14.27;;;11.20;99.90;;;;;;4974479;28;20175;-72
2023/10/31 05:19:17;;;;;;;17.67;14.67;;;11.20;99.90;;;;;;4974289;28;20533;-71
2023/10/31 05:21:42;;;;;;;19.40;14.47;;;11.30;99.90;;;;;;4974679;28;20239;-71
2023/10/31 05:24:08;;;;;;;19.13;14.37;;;11.30;99.90;;;;;;4973692;28;20638;-71
2023/10/31 05:26:34;;;;;;;17.60;14.80;;;11.40;99.90;;;;;;4974349;28;20259;-71
2023/10/31 05:28:59;;;;;;;17.57;14.10;;;11.30;99.90;;;;;;4973955;28;20254;-72
2023/10/31 05:31:25;;;;;;;17.80;14.03;;;11.40;99.90;;;;;;4974097;28;20622;-71
2023/10/31 05:33:52;;;;;;;16.67;12.60;;;11.40;99.90;;;;;;4973855;28;20651;-72
2023/10/31 05:36:22;;;;;;;16.63;13.27;;;11.40;99.90;;;;;;4973303;28;20183;-72
2023/10/31 05:38:49;;;;;;;14.77;13.13;;;11.40;99.90;;;;;;4974127;28;20168;-72
2023/10/31 05:41:15;;;;;;;14.60;13.10;;;11.50;99.90;;;;;;4974178;28;20172;-71
2023/10/31 05:43:41;;;;;;;15.33;13.63;;;11.40;99.90;;;;;;4973840;28;20192;-71
2023/10/31 05:46:10;;;;;;;15.87;13.67;;;11.40;99.90;;;;;;4974077;28;20203;-71
2023/10/31 05:48:38;;;;;;;17.10;14.30;;;11.40;99.90;;;;;;4973942;28;20238;-71
2023/10/31 05:51:04;;;;;;;16.00;13.50;;;11.40;99.90;;;;;;4973437;28;20250;-72
2023/10/31 05:53:32;;;;;;;15.83;13.63;;;11.50;99.90;;;;;;4973596;28;20266;-72
2023/10/31 05:55:58;;;;;;;15.97;13.73;;;11.50;99.90;;;;;;4973437;28;20299;-71
2023/10/31 05:58:23;;;;;;;15.90;13.83;;;11.60;99.90;;;;;;4973564;28;20266;-72
2023/10/31 06:00:49;;;;;;;18.57;14.17;;;11.60;99.90;;;;;;4973671;28;20656;-71
2023/10/31 06:03:14;;;;;;;17.70;13.63;;;11.60;99.90;;;;;;4973898;28;20180;-72
2023/10/31 06:05:40;;;;;;;18.30;13.17;;;11.50;99.90;;;;;;4973575;28;20255;-72
2023/10/31 06:08:06;;;;;;;16.70;13.70;;;11.50;99.90;;;;;;4973753;28;20176;-72
2023/10/31 06:10:31;;;;;;;15.87;13.20;;;11.40;99.90;;;;;;4973589;28;20172;-72
2023/10/31 06:12:57;;;;;;;15.03;12.57;;;11.40;99.90;;;;;;4973451;28;20247;-72
2023/10/31 06:15:22;;;;;;;15.03;12.80;;;11.40;99.90;;;;;;4972464;28;20212;-72
2023/10/31 06:17:48;;;;;;;16.57;12.63;;;11.40;99.90;;;;;;4973601;28;20172;-72
2023/10/31 06:20:13;;;;;;;14.27;12.63;;;11.50;99.90;;;;;;4973500;28;20179;-72
2023/10/31 06:22:39;;;;;;;14.77;12.70;;;11.50;99.90;;;;;;4973015;28;20172;-71
2023/10/31 06:25:05;;;;;;;15.53;12.37;;;11.50;99.90;;;;;;4973480;28;20750;-71
2023/10/31 06:27:31;;;;;;;14.17;12.07;;;11.60;99.90;;;;;;4972732;28;20164;-72
2023/10/31 06:29:56;;;;;;;16.50;11.73;;;11.60;99.90;;;;;;4973172;28;20195;-71
2023/10/31 06:32:22;;;;;;;12.67;11.37;;;11.50;99.90;;;;;;4973858;28;20215;-72
2023/10/31 06:34:48;;;;;;;14.17;11.93;;;11.40;99.90;;;;;;4973125;28;20536;-72
2023/10/31 06:37:13;;;;;;;13.27;11.60;;;11.40;99.90;;;;;;4973129;28;20180;-72
2023/10/31 06:39:39;;;;;;;12.93;11.37;;;11.40;99.90;;;;;;4973282;28;20588;-72
2023/10/31 06:42:04;;;;;;;13.53;11.20;;;11.40;99.90;;;;;;4972771;28;20172;-73
2023/10/31 06:44:30;;;;;;;13.53;11.13;;;11.30;99.90;;;;;;4972995;28;20176;-71
2023/10/31 06:46:56;;;;;;;12.90;11.33;;;11.30;99.90;;;;;;4975219;28;20235;-72
2023/10/31 06:49:22;;;;;;;13.27;11.33;;;11.30;99.90;;;;;;4976674;28;20203;-71
2023/10/31 06:51:48;;;;;;;11.90;10.53;;;11.30;99.90;;;;;;4976259;28;20186;-71
2023/10/31 06:54:13;;;;;;;13.60;10.30;;;11.20;99.90;;;;;;4975591;28;20215;-72
2023/10/31 06:56:39;;;;;;;12.07;10.70;;;11.20;99.90;;;;;;4976249;28;20192;-72
2023/10/31 06:59:04;;;;;;;16.03;10.17;;;11.30;99.90;;;;;;4976215;28;20520;-71
2023/10/31 07:01:30;;;;;;;10.90;9.83;;;11.20;99.90;;;;;;4976395;28;20595;-71
2023/10/31 07:03:56;;;;;;;13.23;10.27;;;11.20;99.90;;;;;;4976297;28;20176;-73
2023/10/31 07:06:21;;;;;;;13.07;9.77;;;11.30;99.90;;;;;;4976315;28;20219;-72
2023/10/31 07:08:47;;;;;;;12.73;9.27;;;11.30;99.90;;;;;;4975316;28;20255;-72
2023/10/31 07:11:12;;;;;;;13.17;9.50;;;11.30;99.90;;;;;;4975714;28;20191;-72
2023/10/31 07:13:38;;;;;;;10.03;8.73;;;11.40;99.90;;;;;;4976171;28;20175;-71
2023/10/31 07:16:04;;;;;;;11.37;9.57;;;11.50;99.90;;;;;;4975952;28;20219;-72
2023/10/31 07:18:30;;;;;;;11.07;9.40;;;11.50;99.90;;;;;;4976213;28;20253;-71
2023/10/31 07:20:56;;;;;;;10.27;9.00;;;11.50;99.90;;;;;;4975684;28;20179;-72
2023/10/31 07:23:22;;;;;;;10.30;8.73;;;11.40;99.90;;;;;;4976079;28;20194;-72
2023/10/31 07:25:47;;;;;;;11.13;9.20;;;11.40;99.90;;;;;;4973929;28;20227;-73
2023/10/31 07:28:13;;;;;;;11.30;9.10;;;11.40;99.90;;;;;;4974643;28;20194;-71
2023/10/31 07:30:39;;;;;;;11.63;8.77;;;11.40;99.90;;;;;;4975442;28;20545;-70
2023/10/31 07:33:04;;;;;;;9.50;8.70;;;11.50;99.90;;;;;;4975435;28;20252;-71
2023/10/31 07:35:30;;;;;;;12.57;9.53;;;11.50;99.90;;;;;;4975105;28;20214;-72
2023/10/31 07:37:55;;;;;;;10.23;9.10;;;11.60;99.90;;;;;;4975248;28;20176;-72
2023/10/31 07:40:21;;;;;;;11.47;9.20;;;11.60;99.90;;;;;;4975442;28;20539;-71
2023/10/31 07:42:47;;;;;;;9.77;8.83;;;11.70;99.90;;;;;;4975280;28;20194;-72
2023/10/31 07:45:12;;;;;;;10.83;8.43;;;11.60;99.90;;;;;;4975275;28;20580;-72
2023/10/31 07:47:38;;;;;;;9.90;8.30;;;11.80;99.90;;;;;;4975428;28;20194;-72
2023/10/31 07:50:05;;;;;;;14.53;8.50;;;11.80;99.90;;;;;;4973863;28;20200;-72
2023/10/31 07:52:31;;;;;;;10.13;8.50;;;12.00;99.90;;;;;;4975105;28;20207;-71
2023/10/31 07:54:57;;;;;;;8.87;7.70;;;12.10;99.90;;;;;;4974660;28;20242;-72
2023/10/31 07:57:22;;;;;;;9.27;8.27;;;12.10;99.90;;;;;;4975222;28;20193;-72
2023/10/31 07:59:48;;;;;;;8.17;7.47;;;12.00;99.90;;;;;;4975514;28;20176;-73
2023/10/31 08:02:13;;;;;;;8.27;7.33;;;12.10;99.90;;;;;;4975107;28;20593;-72
2023/10/31 08:04:39;;;;;;;7.43;6.60;;;12.20;99.90;;;;;;4975033;28;20676;-73
2023/10/31 08:07:04;;;;;;;8.93;6.40;;;12.30;99.90;;;;;;4975015;28;20267;-71
2023/10/31 08:09:30;;;;;;;7.53;6.83;;;12.20;99.90;;;;;;4974841;28;20175;-72
2023/10/31 08:11:56;;;;;;;8.57;6.73;;;12.20;99.90;;;;;;4974582;28;20183;-72
2023/10/31 08:14:22;;;;;;;8.87;6.33;;;12.10;99.90;;;;;;4975028;28;20254;-72
2023/10/31 08:16:47;;;;;;;7.10;6.37;;;12.10;99.90;;;;;;4975271;28;20168;-72
2023/10/31 08:19:14;;;;;;;7.80;6.07;;;12.10;99.90;;;;;;4974887;28;20214;-72
2023/10/31 08:21:40;;;;;;;8.40;5.10;;;12.00;99.90;;;;;;4974765;28;20648;-73
2023/10/31 08:24:06;;;;;;;8.20;5.93;;;12.10;99.90;;;;;;4974160;28;20211;-72
2023/10/31 08:26:32;;;;;;;6.03;5.40;;;12.10;99.90;;;;;;4975058;28;20179;-72
2023/10/31 08:28:58;;;;;;;6.97;5.30;;;12.20;99.90;;;;;;4973159;28;20355;-72
2023/10/31 08:31:24;;;;;;;9.60;5.80;;;12.20;99.90;;;;;;4974212;28;20215;-71
2023/10/31 08:33:50;;;;;;;6.97;5.40;;;12.20;99.90;;;;;;4974756;28;20629;-72
2023/10/31 08:36:15;;;;;;;6.63;5.90;;;12.10;99.90;;;;;;4974897;28;20223;-72
2023/10/31 08:38:41;;;;;;;10.97;6.00;;;12.20;99.90;;;;;;4974492;28;20262;-73
2023/10/31 08:41:07;;;;;;;8.17;5.80;;;12.30;99.90;;;;;;4974790;28;20172;-73
2023/10/31 08:43:32;;;;;;;8.30;5.13;;;12.30;99.90;;;;;;4974739;28;20502;-73
2023/10/31 08:45:58;;;;;;;8.60;5.03;;;12.30;99.90;;;;;;4974506;28;20239;-72
2023/10/31 08:48:24;;;;;;;7.73;5.50;;;12.20;99.90;;;;;;4974239;28;20168;-73
2023/10/31 08:50:50;;;;;;;9.47;5.97;;;12.20;99.90;;;;;;4974627;28;20187;-72
2023/10/31 08:53:16;;;;;;;5.73;5.20;;;12.30;99.90;;;;;;4973889;28;20576;-72
2023/10/31 08:55:44;;;;;;;8.40;4.93;;;12.30;99.90;;;;;;4974762;28;20299;-71
2023/10/31 08:58:14;;;;;;;6.63;4.83;;;12.40;99.90;;;;;;4973431;28;20176;-72
2023/10/31 09:00:42;;;;;;;6.27;4.77;;;12.40;99.90;;;;;;4973658;28;20627;-72
2023/10/31 09:03:08;;;;;;;7.97;4.77;;;12.60;99.90;;;;;;4974282;28;20172;-72
2023/10/31 09:05:33;;;;;;;8.80;4.57;;;12.90;99.90;;;;;;4974199;28;20694;-73
2023/10/31 09:07:59;;;;;;;5.97;4.67;;;13.40;99.90;;;;;;4972763;28;20172;-73
2023/10/31 09:10:25;;;;;;;7.23;4.27;;;13.90;99.90;;;;;;4973558;28;20183;-74
2023/10/31 09:12:50;;;;;;;8.63;3.80;;;14.00;99.90;;;;;;4974024;28;20183;-73
2023/10/31 09:15:16;;;;;;;7.80;4.07;;;14.40;99.90;;;;;;4973659;28;20207;-73
2023/10/31 09:17:41;;;;;;;7.30;4.10;;;14.50;99.90;;;;;;4973391;28;20219;-72
2023/10/31 09:20:08;;;;;;;8.10;4.20;;;14.50;99.90;;;;;;4973722;28;20230;-72
2023/10/31 09:22:34;;;;;;;4.63;4.10;;;14.60;99.90;;;;;;4972312;28;20180;-72
2023/10/31 09:24:59;;;;;;;4.83;4.20;;;14.80;99.90;;;;;;4973656;28;20325;-72
2023/10/31 09:27:25;;;;;;;7.80;4.63;;;14.70;99.90;;;;;;4973813;28;20643;-72
2023/10/31 09:29:51;;;;;;;7.23;4.03;;;14.40;99.90;;;;;;4973514;28;20182;-72
2023/10/31 09:32:18;;;;;;;8.17;4.77;;;14.10;99.90;;;;;;4973710;28;20226;-71
2023/10/31 09:34:43;;;;;;;9.00;4.50;;;14.10;99.90;;;;;;4974081;28;20741;-72
2023/10/31 09:37:09;;;;;;;8.23;5.10;;;13.70;99.90;;;;;;4973568;28;20191;-73
2023/10/31 09:39:34;;;;;;;8.40;5.17;;;13.60;99.90;;;;;;4973770;28;20179;-72
2023/10/31 09:42:00;;;;;;;9.17;5.00;;;13.50;99.90;;;;;;4973462;28;20752;-71
2023/10/31 09:44:26;;;;;;;7.60;4.90;;;13.40;99.90;;;;;;4973729;28;20635;-72
2023/10/31 09:46:52;;;;;;;7.40;5.13;;;13.40;99.90;;;;;;4973395;28;20254;-72
2023/10/31 09:49:18;;;;;;;8.07;5.03;;;13.30;99.90;;;;;;4973740;28;20190;-72
2023/10/31 09:51:46;;;;;;;11.37;4.90;;;13.30;99.90;;;;;;4972928;28;20176;-72
2023/10/31 09:54:15;;;;;;;9.33;5.83;;;13.20;99.90;;;;;;4973486;28;20174;-71
2023/10/31 09:56:41;;;;;;;6.70;5.60;;;12.80;99.90;;;;;;4973338;28;20246;-72
2023/10/31 09:59:07;;;;;;;5.80;5.30;;;12.80;99.90;;;;;;4973663;28;20199;-72
2023/10/31 10:01:33;;;;;;;7.63;4.97;;;12.90;99.90;;;;;;4973635;28;20636;-72
2023/10/31 10:03:59;;;;;;;7.97;5.13;;;13.10;99.90;;;;;;4972907;28;20231;-71
2023/10/31 10:06:26;;;;;;;12.53;5.30;;;13.20;99.90;;;;;;4973834;28;20187;-71
2023/10/31 10:08:51;;;;;;;7.77;5.03;;;13.40;99.90;;;;;;4973035;28;20263;-71
2023/10/31 10:11:17;;;;;;;9.40;5.27;;;13.20;99.90;;;;;;4973519;28;20204;-71
2023/10/31 10:13:43;;;;;;;9.20;5.87;;;13.20;99.90;;;;;;4973473;28;20164;-71
2023/10/31 10:16:09;;;;;;;8.33;4.80;;;13.30;99.90;;;;;;4973121;28;20219;-71
2023/10/31 10:18:39;;;;;;;5.53;4.93;;;13.40;99.90;;;;;;4973047;28;20249;-71
2023/10/31 10:21:05;;;;;;;9.47;5.23;;;13.40;99.90;;;;;;4975608;28;20176;-71
2023/10/31 10:23:32;;;;;;;7.23;5.23;;;13.40;99.90;;;;;;4977196;28;20184;-71
2023/10/31 10:26:00;;;;;;;10.43;5.60;;;13.50;99.90;;;;;;4977088;28;20224;-72
2023/10/31 10:28:26;;;;;;;11.90;5.30;;;13.50;99.90;;;;;;4976978;28;20176;-71
2023/10/31 10:30:56;;;;;;;11.80;5.53;;;13.30;99.90;;;;;;4976601;28;20184;-71
2023/10/31 10:33:22;;;;;;;11.07;5.50;;;13.30;99.90;;;;;;4976533;28;20180;-71
2023/10/31 10:35:48;;;;;;;10.80;5.33;;;13.30;99.90;;;;;;4975759;28;20208;-72
2023/10/31 10:38:19;;;;;;;16.50;5.83;;;13.10;99.90;;;;;;4977132;28;20389;-71
2023/10/31 10:40:47;;;;;;;7.43;5.70;;;13.10;99.90;;;;;;4976409;28;20184;-71
2023/10/31 10:43:23;;;;;;;10.70;5.53;;;13.20;99.90;;;;;;4976579;28;20184;-70
2023/10/31 10:45:58;;;;;;;10.90;6.00;;;13.30;99.90;;;;;;4976783;28;20270;-71
2023/10/31 10:48:27;;;;;;;10.00;5.70;;;13.40;99.90;;;;;;4976339;28;20171;-71
2023/10/31 10:51:19;;;;;;;13.23;6.17;;;13.20;99.90;;;;;;4976046;28;20201;-71
2023/10/31 10:53:52;;;;;;;9.23;5.30;;;13.20;99.90;;;;;;4975574;28;20274;-70
2023/10/31 10:56:26;;;;;;;11.17;5.67;;;13.30;99.90;;;;;;4976152;28;20231;-71
2023/10/31 10:59:00;;;;;;;10.30;5.40;;;13.50;99.90;;;;;;4976479;28;20171;-72
2023/10/31 11:01:28;;;;;;;7.37;5.23;;;13.60;99.90;;;;;;4976733;28;20632;-71
2023/10/31 11:03:55;;;;;;;6.37;5.07;;;13.60;99.90;;;;;;4975240;28;20255;-71
2023/10/31 11:06:21;;;;;;;7.60;4.83;;;13.50;99.90;;;;;;4976002;28;20612;-72
2023/10/31 11:08:47;;;;;;;8.90;5.47;;;13.60;99.90;;;;;;4976285;28;20211;-71
2023/10/31 11:11:15;;;;;;;11.43;5.97;;;13.40;99.90;;;;;;4975957;28;20184;-71
2023/10/31 11:13:43;;;;;;;11.77;6.13;;;13.30;99.90;;;;;;4976465;28;20182;-71
2023/10/31 11:16:44;;;;;;;8.90;5.97;;;13.20;99.90;;;;;;4976489;28;20212;-72
2023/10/31 11:19:11;;;;;;;12.53;6.83;;;13.20;99.90;;;;;;4976150;28;20228;-71
2023/10/31 11:21:37;;;;;;;13.60;8.17;;;13.10;99.90;;;;;;4976168;28;20172;-73
2023/10/31 11:24:03;;;;;;;15.20;9.50;;;12.90;99.90;;;;;;4975985;28;20223;-72
2023/10/31 11:26:32;;;;;;;15.27;10.27;;;12.80;99.90;;;;;;4975898;28;20214;-72
2023/10/31 11:29:08;;;;;;;16.87;11.50;;;12.70;99.90;;;;;;4974550;28;20180;-71
2023/10/31 11:31:36;;;;;;;15.00;11.40;;;12.70;99.90;;;;;;4975083;28;20176;-72
2023/10/31 11:34:02;;;;;;;17.97;12.27;;;12.70;99.90;;;;;;4974605;28;20267;-71
2023/10/31 11:36:34;;;;;;;20.97;12.87;;;12.60;99.90;;;;;;4975995;28;20643;-71
2023/10/31 11:39:20;;;;;;;19.80;13.40;;;12.70;99.90;;;;;;4976018;28;20172;-73
2023/10/31 11:41:50;;;;;;;19.87;14.37;;;12.70;99.90;;;;;;4975090;28;20168;-73
2023/10/31 11:44:16;;;;;;;20.73;13.60;;;12.70;99.90;;;;;;4975962;28;20172;-71
2023/10/31 11:46:43;;;;;;;21.37;13.93;;;12.70;99.90;;;;;;4975156;28;20179;-72
2023/10/31 11:49:08;;;;;;;20.37;13.27;;;12.70;99.90;;;;;;4975687;28;20541;-70
2023/10/31 11:51:35;;;;;;;20.77;13.50;;;12.70;99.90;;;;;;4978378;28;20194;-72
2023/10/31 11:54:02;;;;;;;23.97;14.63;;;12.70;99.90;;;;;;4975771;28;20181;-72
2023/10/31 11:56:27;;;;;;;22.00;14.37;;;12.70;99.90;;;;;;4975850;28;20211;-72
2023/10/31 11:59:02;;;;;;;24.20;15.33;;;12.80;99.90;;;;;;4974912;28;20511;-72
2023/10/31 12:01:28;;;;;;;19.97;14.20;;;12.80;99.90;;;;;;4974806;28;20187;-72
2023/10/31 12:03:54;;;;;;;17.97;13.13;;;12.70;99.90;;;;;;4975622;28;20172;-72
2023/10/31 12:06:21;;;;;;;18.90;13.03;;;12.70;99.90;;;;;;4974033;28;20512;-72
2023/10/31 12:08:48;;;;;;;18.13;11.40;;;12.70;99.90;;;;;;4973250;28;20662;-74
2023/10/31 12:11:20;;;;;;;15.77;10.97;;;12.60;99.90;;;;;;4975084;28;20176;-73
2023/10/31 12:13:56;;;;;;;10.40;8.50;;;12.60;99.90;;;;;;4975105;28;20188;-72
2023/10/31 12:16:27;;;;;;;15.13;10.33;;;12.50;99.90;;;;;;4974532;28;20290;-73
2023/10/31 12:19:11;;;;;;;15.70;9.33;;;12.60;99.90;;;;;;5005397;28;20168;-72
2023/10/31 12:21:36;;;;;;;13.33;9.47;;;12.50;99.90;;;;;;4974460;28;20710;-72
2023/10/31 12:24:07;;;;;;;13.73;9.53;;;12.30;99.90;;;;;;4975146;28;20175;-72
2023/10/31 12:26:36;;;;;;;14.17;10.00;;;12.30;99.90;;;;;;4974481;28;20208;-72
2023/10/31 12:29:12;;;;;;;19.13;10.53;;;12.30;99.90;;;;;;4974370;28;20227;-71
2023/10/31 12:31:54;;;;;;;16.47;9.23;;;12.30;99.90;;;;;;4973993;28;20205;-71